Time;durP1;ratioP1;P1;durP2;ratioP2;P2;SDS_P1;SDS_P2;PMS_P1;PMS_P2;Temp;Humidity;BMP_temperature;BMP_pressure;BME280_temperature;BME280_humidity;BME280_pressure;Samples;Min_cycle;Max_cycle;Signal;HPM_P1;HPM_P2
2023/04/20 00:00:00;;;;;;;;;17.75;15.50;24.40;39.00;;;;;;111280;1241;49739;-68
2023/04/20 00:02:27;;;;;;;;;17.00;16.00;24.40;39.00;;;;;;111476;1240;50658;-68
2023/04/20 00:04:54;;;;;;;;;22.25;16.00;24.40;39.00;;;;;;111221;1241;46695;-67
2023/04/20 00:07:23;;;;;;;;;18.00;16.00;24.30;38.90;;;;;;111167;1243;56015;-69
2023/04/20 00:09:50;;;;;;;;;18.00;16.00;24.30;38.90;;;;;;111062;1246;54042;-69
2023/04/20 00:12:17;;;;;;;;;19.00;15.75;24.30;38.90;;;;;;111254;1244;50710;-69
2023/04/20 00:14:44;;;;;;;;;14.50;13.25;24.30;38.90;;;;;;111665;1244;49304;-68
2023/04/20 00:17:11;;;;;;;;;18.00;15.00;24.30;39.00;;;;;;111223;1239;45499;-68
2023/04/20 00:19:38;;;;;;;;;17.00;15.67;24.30;39.00;;;;;;111296;1244;55861;-68
2023/04/20 00:22:05;;;;;;;;;16.75;15.25;24.30;39.10;;;;;;111222;1240;54286;-69
2023/04/20 00:24:32;;;;;;;;;16.50;15.00;24.30;39.10;;;;;;111222;1243;50361;-68
2023/04/20 00:26:59;;;;;;;;;16.00;15.00;24.30;39.00;;;;;;111177;1244;48816;-68
2023/04/20 00:29:26;;;;;;;;;17.75;16.50;24.20;38.90;;;;;;111167;1244;45156;-67
2023/04/20 00:31:53;;;;;;;;;17.00;16.00;24.20;38.90;;;;;;111173;1244;55510;-68
2023/04/20 00:34:20;;;;;;;;;17.75;14.75;24.20;38.90;;;;;;111249;1244;54579;-67
2023/04/20 00:36:47;;;;;;;;;16.75;14.75;24.20;38.90;;;;;;111240;1244;49357;-69
2023/04/20 00:39:15;;;;;;;;;15.00;13.00;24.20;39.00;;;;;;111331;1241;49185;-68
2023/04/20 00:41:41;;;;;;;;;17.25;16.00;24.20;38.90;;;;;;111249;1245;45695;-68
2023/04/20 00:44:12;;;;;;;;;16.00;15.00;24.10;38.90;;;;;;111286;1240;56300;-70
2023/04/20 00:46:40;;;;;;;;;15.25;14.00;24.10;38.90;;;;;;111218;1241;54458;-69
2023/04/20 00:49:07;;;;;;;;;17.00;15.00;24.10;38.90;;;;;;111178;1244;49217;-68
2023/04/20 00:51:34;;;;;;;;;17.50;14.75;24.10;38.90;;;;;;111220;1241;48878;-70
2023/04/20 00:54:01;;;;;;;;;18.50;15.75;24.10;38.90;;;;;;111219;1241;46196;-69
2023/04/20 00:56:29;;;;;;;;;17.00;14.75;24.10;38.90;;;;;;111268;1240;55931;-66
2023/04/20 00:58:56;;;;;;;;;20.50;17.25;24.10;38.90;;;;;;111224;1240;53649;-68
2023/04/20 01:01:23;;;;;;;;;16.75;15.00;24.00;38.90;;;;;;111226;1244;49680;-68
2023/04/20 01:03:50;;;;;;;;;19.33;14.00;24.00;38.40;;;;;;110988;1241;49610;-67
2023/04/20 01:06:17;;;;;;;;;15.33;14.67;24.00;39.10;;;;;;111582;1240;45564;-67
2023/04/20 01:08:49;;;;;;;;;16.67;15.00;24.00;38.90;;;;;;111226;1240;55508;-68
2023/04/20 01:11:17;;;;;;;;;16.25;14.75;24.00;38.90;;;;;;111213;1244;53157;-69
2023/04/20 01:13:44;;;;;;;;;16.00;14.50;24.00;38.80;;;;;;110963;1247;49073;-67
2023/04/20 01:16:12;;;;;;;;;16.00;15.00;24.00;38.40;;;;;;111233;1244;49452;-67
2023/04/20 01:18:47;;;;;;;;;16.50;14.75;24.00;38.90;;;;;;111220;1241;46540;-67
2023/04/20 01:21:16;;;;;;;;;16.25;15.25;24.00;38.90;;;;;;111236;1239;55370;-67
2023/04/20 01:23:44;;;;;;;;;19.00;15.00;24.00;38.90;;;;;;111216;1244;54425;-67
2023/04/20 01:26:14;;;;;;;;;18.00;15.00;23.90;38.80;;;;;;111323;1244;50381;-67
2023/04/20 01:28:42;;;;;;;;;17.75;15.75;24.00;38.90;;;;;;111230;1244;50555;-68
2023/04/20 01:31:11;;;;;;;;;16.50;15.00;24.00;38.90;;;;;;111277;1240;45902;-69
2023/04/20 01:33:38;;;;;;;;;17.50;16.50;23.90;38.90;;;;;;111327;1239;55309;-71
2023/04/20 01:36:07;;;;;;;;;19.00;17.75;23.90;38.80;;;;;;111650;1244;54347;-69
2023/04/20 01:38:35;;;;;;;;;14.25;13.00;23.90;38.80;;;;;;111292;1241;50009;-69
2023/04/20 01:41:04;;;;;;;;;17.33;16.67;23.90;38.80;;;;;;111053;1244;49085;-68
2023/04/20 01:43:32;;;;;;;;;18.00;14.00;23.90;38.70;;;;;;110991;1242;45241;-69
2023/04/20 01:46:00;;;;;;;;;17.00;14.75;24.00;39.00;;;;;;111251;1244;55358;-69
2023/04/20 01:48:27;;;;;;;;;15.50;14.00;23.90;38.80;;;;;;111238;1244;54322;-71
2023/04/20 01:50:54;;;;;;;;;13.50;12.50;23.90;38.70;;;;;;111207;1240;49006;-71
2023/04/20 01:53:21;;;;;;;;;15.00;13.50;23.90;38.70;;;;;;111225;1240;50552;-71
2023/04/20 01:55:49;;;;;;;;;15.75;14.50;23.90;38.80;;;;;;111240;1243;46037;-70
2023/04/20 01:58:16;;;;;;;;;17.00;15.75;23.90;39.00;;;;;;111168;1241;56644;-70
2023/04/20 02:00:43;;;;;;;;;14.00;13.00;23.90;38.80;;;;;;111219;1244;54129;-69
2023/04/20 02:03:10;;;;;;;;;18.25;17.00;23.90;38.80;;;;;;111002;1245;50452;-68
2023/04/20 02:05:37;;;;;;;;;18.33;16.33;23.90;38.80;;;;;;111269;1240;49831;-68
2023/04/20 02:08:04;;;;;;;;;16.75;15.00;23.90;39.10;;;;;;111314;1240;45444;-69
2023/04/20 02:10:31;;;;;;;;;16.75;15.75;23.90;38.90;;;;;;111222;1241;56075;-70
2023/04/20 02:12:58;;;;;;;;;16.50;14.00;23.90;38.90;;;;;;111212;1241;54158;-70
2023/04/20 02:15:25;;;;;;;;;16.25;14.00;23.90;38.90;;;;;;111312;1243;49839;-71
2023/04/20 02:17:52;;;;;;;;;15.00;14.00;23.80;38.80;;;;;;111273;1241;49378;-71
2023/04/20 02:20:20;;;;;;;;;14.00;13.00;23.90;38.90;;;;;;111256;1241;45639;-68
2023/04/20 02:22:47;;;;;;;;;15.00;14.00;23.90;39.00;;;;;;111259;1244;55411;-69
2023/04/20 02:25:14;;;;;;;;;18.00;17.25;23.80;39.10;;;;;;111387;1239;54400;-70
2023/04/20 02:27:41;;;;;;;;;16.00;14.50;23.80;38.90;;;;;;111034;1241;49373;-70
2023/04/20 02:30:09;;;;;;;;;14.25;13.25;23.90;38.90;;;;;;111317;1243;49805;-71
2023/04/20 02:32:36;;;;;;;;;17.00;15.67;23.90;38.90;;;;;;111315;1244;45246;-71
2023/04/20 02:35:03;;;;;;;;;16.25;15.25;23.90;39.20;;;;;;111357;1241;56206;-70
2023/04/20 02:37:31;;;;;;;;;20.25;16.50;23.90;39.00;;;;;;111313;1241;54277;-69
2023/04/20 02:39:58;;;;;;;;;17.33;12.33;23.90;38.90;;;;;;111323;1240;50478;-70
2023/04/20 02:42:25;;;;;;;;;15.33;14.00;23.90;38.90;;;;;;111328;1243;48970;-71
2023/04/20 02:44:52;;;;;;;;;15.75;15.00;23.90;38.90;;;;;;111604;1241;46303;-70
2023/04/20 02:47:19;;;;;;;;;15.25;14.00;23.90;38.90;;;;;;111317;1244;55818;-71
2023/04/20 02:49:46;;;;;;;;;15.67;14.33;23.90;39.10;;;;;;111278;1243;53991;-70
2023/04/20 02:52:13;;;;;;;;;16.00;15.00;23.90;38.90;;;;;;111282;1240;50599;-70
2023/04/20 02:54:40;;;;;;;;;17.33;14.67;23.90;39.00;;;;;;111721;1240;49899;-71
2023/04/20 02:57:07;;;;;;;;;15.50;14.25;23.80;38.90;;;;;;111122;1242;46113;-72
2023/04/20 02:59:34;;;;;;;;;15.50;14.50;23.80;38.90;;;;;;111331;1243;55451;-72
2023/04/20 03:02:01;;;;;;;;;16.50;14.00;23.80;38.90;;;;;;111141;1246;53597;-70
2023/04/20 03:04:29;;;;;;;;;15.50;14.00;23.80;39.10;;;;;;111596;1246;50228;-71
2023/04/20 03:06:57;;;;;;;;;18.50;17.00;23.80;38.90;;;;;;111007;1245;49865;-70
2023/04/20 03:09:24;;;;;;;;;17.67;16.33;23.80;39.10;;;;;;111217;1244;46081;-71
2023/04/20 03:11:51;;;;;;;;;15.00;13.75;23.80;38.80;;;;;;111251;1243;55349;-71
2023/04/20 03:14:18;;;;;;;;;16.75;13.00;23.80;38.40;;;;;;111220;1244;54285;-72
2023/04/20 03:16:45;;;;;;;;;16.00;14.00;23.80;38.90;;;;;;111233;1241;49871;-72
2023/04/20 03:19:12;;;;;;;;;19.25;15.75;23.80;39.00;;;;;;111221;1240;49272;-72
2023/04/20 03:21:39;;;;;;;;;14.75;12.50;23.80;39.20;;;;;;111258;1241;46159;-70
2023/04/20 03:24:06;;;;;;;;;14.00;13.00;23.80;39.30;;;;;;111511;1243;55647;-69
2023/04/20 03:26:33;;;;;;;;;15.50;13.75;23.80;39.10;;;;;;111272;1244;54457;-69
2023/04/20 03:29:01;;;;;;;;;15.50;13.50;23.80;39.10;;;;;;111191;1241;49876;-70
2023/04/20 03:31:28;;;;;;;;;15.00;13.50;23.80;39.00;;;;;;111031;1241;49789;-69
2023/04/20 03:33:55;;;;;;;;;14.50;13.50;23.70;39.00;;;;;;111164;1242;45219;-73
2023/04/20 03:36:22;;;;;;;;;16.00;15.00;23.70;39.10;;;;;;111268;1244;56912;-66
2023/04/20 03:38:49;;;;;;;;;15.00;14.00;23.70;39.10;;;;;;111260;1241;53711;-66
2023/04/20 03:41:16;;;;;;;;;15.50;14.50;23.70;39.10;;;;;;111200;1241;49250;-67
2023/04/20 03:43:42;;;;;;;;;13.75;12.75;23.70;39.40;;;;;;111195;1242;49063;-68
2023/04/20 03:46:10;;;;;;;;;15.67;14.00;23.60;39.30;;;;;;111220;1240;45262;-69
2023/04/20 03:48:37;;;;;;;;;16.67;15.00;23.70;39.60;;;;;;111148;1241;56246;-67
2023/04/20 03:51:04;;;;;;;;;16.75;13.75;23.70;39.40;;;;;;111254;1239;55276;-68
2023/04/20 03:53:31;;;;;;;;;14.33;13.33;23.70;39.40;;;;;;111184;1241;49714;-67
2023/04/20 03:55:58;;;;;;;;;18.00;15.67;23.70;39.40;;;;;;111163;1244;49750;-71
2023/04/20 03:58:25;;;;;;;;;18.75;14.00;23.70;39.40;;;;;;111325;1240;46816;-67
2023/04/20 04:00:52;;;;;;;;;15.00;13.00;23.70;39.40;;;;;;111135;1243;55947;-67
2023/04/20 04:03:19;;;;;;;;;13.67;12.67;23.80;39.70;;;;;;111148;1243;54420;-66
2023/04/20 04:05:46;;;;;;;;;15.50;14.00;23.80;39.70;;;;;;111217;1240;49625;-66
2023/04/20 04:08:13;;;;;;;;;15.00;12.33;23.70;39.90;;;;;;111171;1241;49235;-70
2023/04/20 04:10:40;;;;;;;;;14.75;13.75;23.80;39.90;;;;;;111178;1244;46550;-67
2023/04/20 04:13:06;;;;;;;;;21.25;19.00;23.80;40.00;;;;;;111248;1244;55712;-66
2023/04/20 04:15:34;;;;;;;;;21.75;18.00;23.80;40.30;;;;;;111247;1243;53805;-68
2023/04/20 04:18:01;;;;;;;;;19.75;18.75;23.80;40.30;;;;;;111129;1241;49659;-66
2023/04/20 04:20:27;;;;;;;;;22.25;21.00;23.80;40.40;;;;;;111146;1241;50257;-65
2023/04/20 04:22:54;;;;;;;;;19.25;17.25;23.80;40.10;;;;;;111130;1240;45812;-64
2023/04/20 04:25:22;;;;;;;;;20.00;19.00;23.70;40.00;;;;;;111166;1240;55355;-66
2023/04/20 04:27:49;;;;;;;;;19.25;17.25;23.70;40.20;;;;;;111248;1244;55068;-69
2023/04/20 04:30:18;;;;;;;;;23.25;17.25;23.70;40.00;;;;;;111177;1241;50234;-68
2023/04/20 04:32:45;;;;;;;;;20.67;16.67;23.70;39.90;;;;;;111281;1243;49661;-68
2023/04/20 04:35:12;;;;;;;;;24.75;20.25;23.70;39.80;;;;;;111202;1241;45377;-70
2023/04/20 04:37:40;;;;;;;;;25.50;22.50;23.70;39.80;;;;;;111238;1244;55401;-67
2023/04/20 04:40:07;;;;;;;;;20.00;19.00;23.80;40.00;;;;;;111198;1241;54828;-68
2023/04/20 04:42:35;;;;;;;;;19.00;16.00;23.70;39.70;;;;;;111152;1244;49440;-67
2023/04/20 04:45:03;;;;;;;;;18.33;16.67;23.70;39.90;;;;;;111145;1244;49770;-66
2023/04/20 04:47:34;;;;;;;;;21.00;18.33;23.70;39.70;;;;;;111278;1244;45224;-66
2023/04/20 04:50:03;;;;;;;;;22.50;18.00;23.70;39.90;;;;;;110613;1244;709506;-65
2023/04/20 04:52:31;;;;;;;;;18.33;15.00;23.70;39.60;;;;;;111200;1241;54732;-65
2023/04/20 04:54:58;;;;;;;;;20.00;18.75;23.70;39.60;;;;;;111050;1244;49194;-65
2023/04/20 04:57:25;;;;;;;;;23.00;19.75;23.70;39.60;;;;;;111242;1241;49446;-65
2023/04/20 04:59:53;;;;;;;;;19.00;18.00;23.70;39.50;;;;;;111216;1243;45620;-66
2023/04/20 05:02:20;;;;;;;;;21.25;20.25;23.70;39.40;;;;;;111235;1244;56283;-65
2023/04/20 05:04:47;;;;;;;;;20.00;16.75;23.60;39.40;;;;;;111046;1240;54117;-65
2023/04/20 05:07:14;;;;;;;;;25.33;20.00;23.70;39.80;;;;;;111205;1244;49238;-66
2023/04/20 05:09:41;;;;;;;;;18.75;15.00;23.70;39.60;;;;;;111190;1241;49203;-66
2023/04/20 05:12:08;;;;;;;;;20.67;17.67;23.70;39.30;;;;;;111208;1244;45606;-66
2023/04/20 05:14:35;;;;;;;;;23.50;18.75;23.60;39.30;;;;;;111269;1241;55118;-67
2023/04/20 05:17:03;;;;;;;;;23.33;19.67;23.60;39.40;;;;;;111297;1244;54015;-69
2023/04/20 05:19:30;;;;;;;;;26.33;23.33;23.60;39.50;;;;;;111215;1241;49667;-68
2023/04/20 05:21:57;;;;;;;;;25.25;22.75;23.70;39.80;;;;;;111259;1240;50691;-70
2023/04/20 05:24:24;;;;;;;;;25.75;20.50;23.70;39.70;;;;;;111291;1242;45561;-68
2023/04/20 05:26:51;;;;;;;;;25.75;21.25;23.70;39.70;;;;;;111291;1243;56863;-70
2023/04/20 05:29:18;;;;;;;;;26.00;24.33;23.70;39.70;;;;;;111283;1239;54238;-69
2023/04/20 05:31:45;;;;;;;;;30.00;25.25;23.70;39.90;;;;;;111225;1244;49360;-69
2023/04/20 05:34:12;;;;;;;;;26.50;23.25;23.70;39.80;;;;;;111250;1241;49778;-69
2023/04/20 05:36:40;;;;;;;;;34.25;25.25;23.80;40.00;;;;;;111002;1242;45248;-69
2023/04/20 05:39:07;;;;;;;;;25.75;23.25;23.70;39.90;;;;;;111211;1239;55429;-70
2023/04/20 05:41:34;;;;;;;;;28.75;24.50;23.70;40.40;;;;;;111254;1241;53403;-69
2023/04/20 05:44:01;;;;;;;;;29.00;23.75;23.70;39.80;;;;;;111305;1241;49709;-69
2023/04/20 05:46:28;;;;;;;;;23.00;20.25;23.70;39.70;;;;;;111001;1247;50349;-70
2023/04/20 05:48:55;;;;;;;;;22.75;21.00;23.60;39.40;;;;;;111275;1245;46194;-68
2023/04/20 05:51:22;;;;;;;;;26.00;21.00;23.60;39.20;;;;;;111282;1240;56472;-69
2023/04/20 05:53:49;;;;;;;;;29.75;24.50;23.70;39.20;;;;;;111343;1244;54750;-69
2023/04/20 05:56:17;;;;;;;;;26.33;23.67;23.70;39.10;;;;;;111653;1240;49204;-72
2023/04/20 05:58:44;;;;;;;;;24.00;23.00;23.70;39.00;;;;;;111039;1241;49145;-69
2023/04/20 06:01:11;;;;;;;;;26.00;23.67;23.80;39.00;;;;;;111263;1244;45727;-70
2023/04/20 06:03:38;;;;;;;;;24.00;22.50;23.80;38.80;;;;;;111279;1241;55353;-69
2023/04/20 06:06:06;;;;;;;;;24.25;23.00;23.80;38.80;;;;;;111290;1244;54072;-69
2023/04/20 06:08:33;;;;;;;;;24.75;22.75;23.80;39.00;;;;;;111252;1242;49436;-70
2023/04/20 06:11:00;;;;;;;;;28.00;24.75;23.90;38.90;;;;;;111250;1243;50622;-72
2023/04/20 06:13:27;;;;;;;;;23.75;22.25;23.90;39.00;;;;;;111230;1238;45718;-69
2023/04/20 06:15:54;;;;;;;;;25.75;23.50;24.00;39.30;;;;;;111278;1240;56803;-70
2023/04/20 06:18:21;;;;;;;;;26.00;24.00;24.00;39.20;;;;;;111288;1239;54534;-71
2023/04/20 06:20:48;;;;;;;;;25.33;24.00;24.10;39.30;;;;;;111278;1244;50185;-71
2023/04/20 06:23:15;;;;;;;;;24.00;21.00;24.20;39.40;;;;;;111039;1242;49448;-70
2023/04/20 06:25:43;;;;;;;;;21.50;19.00;24.20;39.30;;;;;;111112;1247;45199;-71
2023/04/20 06:28:10;;;;;;;;;31.25;25.75;24.20;39.50;;;;;;111082;1247;56000;-72
2023/04/20 06:30:37;;;;;;;;;25.50;21.50;24.30;39.30;;;;;;111382;1248;53898;-71
2023/04/20 06:33:04;;;;;;;;;22.33;21.00;24.30;39.60;;;;;;111440;1240;49159;-70
2023/04/20 06:35:31;;;;;;;;;21.75;20.75;24.40;39.50;;;;;;111660;1244;50162;-72
2023/04/20 06:38:01;;;;;;;;;26.25;22.75;24.40;39.40;;;;;;111630;1244;45214;-72
2023/04/20 06:40:28;;;;;;;;;22.75;21.75;24.50;39.80;;;;;;111554;1244;55170;-70
2023/04/20 06:42:55;;;;;;;;;26.33;21.00;24.60;39.30;;;;;;111596;1244;54009;-68
2023/04/20 06:45:22;;;;;;;;;23.25;20.25;24.70;39.50;;;;;;111659;1244;49130;-69
2023/04/20 06:47:49;;;;;;;;;23.00;20.33;24.70;39.30;;;;;;111678;1241;49458;-68
2023/04/20 06:50:16;;;;;;;;;24.33;22.00;24.80;39.20;;;;;;111624;1241;45483;-69
2023/04/20 06:52:44;;;;;;;;;22.75;20.00;24.90;39.20;;;;;;111616;1241;55362;-67
2023/04/20 06:55:12;;;;;;;;;25.00;22.33;24.90;39.10;;;;;;111616;1241;53320;-69
2023/04/20 06:57:39;;;;;;;;;23.75;21.25;24.90;39.00;;;;;;111610;1241;49421;-71
2023/04/20 07:00:08;;;;;;;;;28.33;22.00;25.00;39.00;;;;;;111344;1244;50344;-73
2023/04/20 07:02:46;;;;;;;;;24.00;22.67;25.00;39.10;;;;;;111270;1244;46007;-73
2023/04/20 07:05:14;;;;;;;;;21.75;19.75;25.00;39.00;;;;;;111358;1239;55596;-73
2023/04/20 07:07:41;;;;;;;;;22.50;20.50;25.00;38.90;;;;;;111447;1243;54056;-70
2023/04/20 07:10:11;;;;;;;;;21.00;19.00;25.10;38.90;;;;;;111606;1240;49333;-69
2023/04/20 07:12:38;;;;;;;;;22.25;21.25;25.10;39.00;;;;;;111542;1241;49519;-70
2023/04/20 07:15:07;;;;;;;;;21.00;20.00;25.10;39.00;;;;;;111494;1244;46305;-69
2023/04/20 07:17:34;;;;;;;;;22.75;21.00;25.10;38.80;;;;;;111203;1240;55572;-70
2023/04/20 07:20:06;;;;;;;;;23.00;20.75;25.20;38.80;;;;;;111419;1243;54423;-72
2023/04/20 07:22:35;;;;;;;;;28.67;21.67;25.20;38.70;;;;;;111445;1244;48873;-73
2023/04/20 07:25:04;;;;;;;;;19.75;18.75;25.20;39.00;;;;;;111568;1243;48875;-70
2023/04/20 07:27:36;;;;;;;;;29.50;21.50;25.20;38.70;;;;;;111557;1240;46234;-71
2023/04/20 07:30:05;;;;;;;;;27.00;22.67;25.30;38.70;;;;;;111600;1244;55060;-71
2023/04/20 07:32:33;;;;;;;;;22.50;21.00;25.30;38.80;;;;;;111433;1246;53324;-71
2023/04/20 07:35:00;;;;;;;;;22.00;20.00;25.40;39.00;;;;;;111390;1244;50367;-71
2023/04/20 07:37:27;;;;;;;;;22.67;20.67;25.40;38.60;;;;;;111629;1242;49952;-73
2023/04/20 07:39:54;;;;;;;;;22.75;20.75;25.50;38.40;;;;;;111574;1244;46240;-70
2023/04/20 07:42:21;;;;;;;;;22.00;20.00;25.50;38.30;;;;;;111306;1241;55825;-72
2023/04/20 07:44:48;;;;;;;;;23.75;19.50;25.50;38.30;;;;;;111219;1244;53967;-72
2023/04/20 07:47:15;;;;;;;;;24.00;21.75;25.50;38.30;;;;;;111288;1244;49698;-73
2023/04/20 07:49:42;;;;;;;;;22.50;20.00;25.50;38.30;;;;;;111200;1244;49218;-73
2023/04/20 07:52:09;;;;;;;;;25.00;21.00;25.50;38.50;;;;;;111282;1244;45902;-72
2023/04/20 07:54:36;;;;;;;;;21.33;19.00;25.50;39.00;;;;;;111268;1243;56109;-71
2023/04/20 07:57:03;;;;;;;;;24.75;21.50;25.50;38.60;;;;;;111256;1244;54389;-72
2023/04/20 07:59:31;;;;;;;;;20.67;19.33;25.50;37.90;;;;;;111240;1240;49782;-71
2023/04/20 08:02:00;;;;;;;;;21.00;20.00;25.50;38.50;;;;;;111262;1244;48930;-71
2023/04/20 08:04:27;;;;;;;;;19.00;16.00;25.50;38.50;;;;;;111176;1241;46602;-69
2023/04/20 08:06:54;;;;;;;;;17.00;16.00;25.50;38.40;;;;;;111364;1244;55936;-69
2023/04/20 08:09:21;;;;;;;;;23.50;21.25;25.50;38.40;;;;;;111371;1244;54227;-69
2023/04/20 08:11:48;;;;;;;;;18.25;16.00;25.50;38.40;;;;;;111543;1244;49636;-72
2023/04/20 08:14:15;;;;;;;;;21.00;18.33;25.50;38.30;;;;;;111259;1246;49660;-70
2023/04/20 08:16:42;;;;;;;;;22.75;19.50;25.60;38.40;;;;;;111460;1243;45160;-69
2023/04/20 08:19:09;;;;;;;;;24.33;21.67;25.60;38.30;;;;;;111391;1243;56408;-70
2023/04/20 08:21:37;;;;;;;;;18.00;17.00;25.60;38.20;;;;;;111570;1244;53479;-69
2023/04/20 08:24:05;;;;;;;;;21.75;20.75;25.70;38.20;;;;;;111515;1240;49678;-70
2023/04/20 08:26:32;;;;;;;;;23.75;19.75;25.70;38.30;;;;;;111598;1239;49482;-70
2023/04/20 08:29:00;;;;;;;;;23.25;18.75;25.80;38.20;;;;;;111395;1239;46435;-69
2023/04/20 08:31:27;;;;;;;;;22.00;19.75;25.80;38.10;;;;;;111513;1240;56064;-73
2023/04/20 08:33:54;;;;;;;;;21.00;19.00;25.80;38.40;;;;;;111245;1244;53892;-70
2023/04/20 08:36:21;;;;;;;;;17.00;16.00;25.80;38.30;;;;;;111468;1240;49342;-71
2023/04/20 08:39:09;;;;;;;;;18.25;16.00;25.90;38.40;;;;;;111556;1243;49703;-72
2023/04/20 08:41:36;;;;;;;;;21.50;20.50;25.90;38.10;;;;;;111509;1240;45439;-71
2023/04/20 08:44:03;;;;;;;;;19.00;17.75;25.90;38.00;;;;;;111537;1244;55198;-72
2023/04/20 08:46:32;;;;;;;;;19.50;17.25;25.90;38.60;;;;;;111496;1241;54223;-70
2023/04/20 08:49:01;;;;;;;;;19.00;17.75;26.00;38.40;;;;;;111254;1244;49981;-69
2023/04/20 08:51:31;;;;;;;;;17.67;16.00;26.00;38.40;;;;;;111495;1244;49708;-70
2023/04/20 08:54:04;;;;;;;;;22.00;19.25;26.10;38.40;;;;;;111486;1239;45544;-70
2023/04/20 08:56:36;;;;;;;;;21.00;20.00;26.10;38.10;;;;;;111502;1240;56634;-70
2023/04/20 08:59:04;;;;;;;;;17.25;16.25;26.10;38.00;;;;;;111510;1243;54675;-70
2023/04/20 09:01:32;;;;;;;;;20.50;18.75;26.20;38.00;;;;;;111485;1241;49386;-71
2023/04/20 09:03:59;;;;;;;;;22.67;17.00;26.20;38.30;;;;;;111259;1246;49085;-72
2023/04/20 09:06:27;;;;;;;;;21.00;19.00;26.20;38.40;;;;;;111474;1244;46209;-72
2023/04/20 09:08:54;;;;;;;;;19.00;16.75;26.20;37.90;;;;;;111424;1242;55753;-70
2023/04/20 09:11:26;;;;;;;;;19.00;17.75;26.20;38.00;;;;;;111231;1244;54464;-70
2023/04/20 09:13:58;;;;;;;;;18.75;16.75;26.30;38.10;;;;;;111393;1243;49025;-69
2023/04/20 09:16:26;;;;;;;;;21.75;19.00;26.30;37.90;;;;;;111384;1244;49431;-70
2023/04/20 09:18:55;;;;;;;;;17.00;15.00;26.30;37.80;;;;;;111420;1239;45022;-70
2023/04/20 09:21:30;;;;;;;;;17.75;16.00;26.30;37.70;;;;;;111506;1244;55712;-71
2023/04/20 09:24:00;;;;;;;;;19.25;17.75;26.30;37.70;;;;;;111559;1241;53841;-72
2023/04/20 09:26:31;;;;;;;;;17.50;16.25;26.30;37.90;;;;;;111514;1241;49686;-70
2023/04/20 09:29:03;;;;;;;;;19.25;17.00;26.30;37.60;;;;;;111473;1240;48876;-68
2023/04/20 09:31:30;;;;;;;;;17.00;16.00;26.40;37.70;;;;;;111561;1241;45791;-70
2023/04/20 09:34:02;;;;;;;;;21.00;17.00;26.40;37.50;;;;;;111530;1244;55219;-68
2023/04/20 09:36:44;;;;;;;;;15.75;14.75;26.40;37.60;;;;;;111548;1240;53359;-67
2023/04/20 09:39:14;;;;;;;;;23.00;21.50;26.40;37.30;;;;;;111484;1243;49875;-66
2023/04/20 09:41:42;;;;;;;;;21.75;18.75;26.40;37.50;;;;;;111142;1241;49348;-67
2023/04/20 09:44:10;;;;;;;;;16.75;15.25;26.50;37.60;;;;;;112023;1239;45944;-69
2023/04/20 09:46:40;;;;;;;;;19.75;18.75;26.50;37.60;;;;;;111534;1239;55868;-66
2023/04/20 09:49:08;;;;;;;;;17.25;16.25;26.50;37.50;;;;;;111597;1244;54624;-71
2023/04/20 09:51:38;;;;;;;;;17.00;16.00;26.50;37.60;;;;;;111781;1243;50245;-71
2023/04/20 09:54:05;;;;;;;;;16.00;15.00;26.50;37.50;;;;;;111397;1244;50396;-75
2023/04/20 09:56:34;;;;;;;;;19.67;16.67;26.60;37.90;;;;;;111419;1241;45394;-76
2023/04/20 09:59:03;;;;;;;;;20.25;18.75;26.60;37.40;;;;;;111378;1243;56633;-68
2023/04/20 10:01:33;;;;;;;;;21.25;17.75;26.60;37.30;;;;;;111284;1240;53732;-68
2023/04/20 10:04:02;;;;;;;;;19.00;17.25;26.60;37.40;;;;;;111162;1241;49833;-62
2023/04/20 10:06:31;;;;;;;;;17.00;15.00;26.60;37.40;;;;;;110963;1243;50216;-67
2023/04/20 10:09:04;;;;;;;;;17.00;16.00;26.60;37.60;;;;;;110914;1244;46479;-64
2023/04/20 10:11:31;;;;;;;;;23.00;20.33;26.60;37.50;;;;;;111295;1241;56048;-64
2023/04/20 10:14:00;;;;;;;;;20.33;17.00;26.60;37.40;;;;;;112139;1244;53952;-64
2023/04/20 10:16:27;;;;;;;;;16.00;15.00;26.60;37.50;;;;;;111299;1241;49713;-66
2023/04/20 10:18:58;;;;;;;;;20.50;18.00;26.60;37.40;;;;;;111258;1240;49081;-64
2023/04/20 10:21:26;;;;;;;;;19.00;16.67;26.60;37.40;;;;;;111291;1239;45585;-65
2023/04/20 10:23:54;;;;;;;;;15.75;14.25;26.50;37.60;;;;;;111272;1241;55855;-66
2023/04/20 10:26:22;;;;;;;;;18.25;15.50;26.40;38.30;;;;;;111281;1241;54015;-69
2023/04/20 10:28:49;;;;;;;;;25.25;18.75;26.40;38.10;;;;;;110991;1247;49031;-67
2023/04/20 10:31:16;;;;;;;;;22.00;15.75;26.40;38.10;;;;;;111269;1244;49212;-62
2023/04/20 10:33:56;;;;;;;;;17.00;14.00;26.30;37.90;;;;;;111382;1240;45177;-63
2023/04/20 10:36:26;;;;;;;;;18.75;17.00;26.30;37.40;;;;;;111351;1241;55990;-63
2023/04/20 10:44:56;;;;;;;;;15.50;14.50;26.40;38.10;;;;;;101394;1257;3010993;-64
2023/04/20 10:47:28;;;;;;;;;17.00;16.00;26.70;37.80;;;;;;110121;1252;35344;-64
2023/04/20 10:50:09;;;;;;;;;20.00;14.50;26.80;37.60;;;;;;109952;1257;55960;-64
2023/04/20 10:52:38;;;;;;;;;19.00;18.00;26.80;37.70;;;;;;110162;1257;54277;-63
2023/04/20 10:55:07;;;;;;;;;19.00;14.00;26.70;37.60;;;;;;110158;1252;50944;-65
2023/04/20 10:57:35;;;;;;;;;21.67;17.67;26.70;37.70;;;;;;110090;1255;50193;-62
2023/04/20 11:00:16;;;;;;;;;18.00;17.50;26.70;37.80;;;;;;109986;1252;46050;-63
2023/04/20 11:03:01;;;;;;;;;16.00;15.00;26.60;37.80;;;;;;110032;1252;55675;-61
2023/04/20 11:05:28;;;;;;;;;18.00;16.00;26.50;37.80;;;;;;109916;1254;54300;-60
2023/04/20 11:07:59;;;;;;;;;22.67;17.67;26.50;38.00;;;;;;109982;1256;49834;-61
2023/04/20 11:10:38;;;;;;;;;19.67;16.33;26.50;38.00;;;;;;109954;1257;49740;-61
2023/04/20 11:13:06;;;;;;;;;18.00;16.50;26.40;37.50;;;;;;110510;1256;46170;-62
2023/04/20 11:15:36;;;;;;;;;20.50;16.00;26.30;38.10;;;;;;110051;1256;56540;-61
2023/04/20 11:18:10;;;;;;;;;19.33;17.00;26.30;38.00;;;;;;110001;1252;53716;-62
2023/04/20 11:20:52;;;;;;;;;19.00;16.00;26.30;38.00;;;;;;109984;1252;49840;-62
2023/04/20 11:23:20;;;;;;;;;17.33;15.00;26.30;38.20;;;;;;110031;1252;49655;-62
2023/04/20 11:25:55;;;;;;;;;19.00;15.00;26.20;38.60;;;;;;109960;1256;45558;-63
2023/04/20 11:28:22;;;;;;;;;24.00;18.50;26.20;38.20;;;;;;109977;1254;55897;-61
2023/04/20 11:30:49;;;;;;;;;19.50;16.00;26.20;38.20;;;;;;109990;1252;53511;-61
2023/04/20 11:33:27;;;;;;;;;21.00;18.00;26.20;38.20;;;;;;109992;1252;49219;-62
2023/04/20 11:35:56;;;;;;;;;16.00;15.00;26.10;38.30;;;;;;110347;1252;49195;-63
2023/04/20 11:38:27;;;;;;;;;18.00;17.00;26.10;38.50;;;;;;109958;1257;46474;-63
2023/04/20 11:40:55;;;;;;;;;18.00;17.00;26.10;38.50;;;;;;110070;1257;55307;-64
2023/04/20 11:43:22;;;;;;;;;18.00;17.00;26.10;38.60;;;;;;110025;1252;54167;-63
2023/04/20 11:45:49;;;;;;;;;15.00;14.00;26.10;38.50;;;;;;110010;1253;49898;-62
2023/04/20 11:48:17;;;;;;;;;20.00;16.00;26.10;38.60;;;;;;109986;1257;49972;-61
2023/04/20 11:50:44;;;;;;;;;21.00;17.00;26.20;38.50;;;;;;110066;1257;46067;-62
2023/04/20 11:53:13;;;;;;;;;16.00;15.00;26.20;38.60;;;;;;109994;1252;55594;-60
2023/04/20 11:55:40;;;;;;;;;19.00;16.00;26.20;38.40;;;;;;110037;1255;54674;-60
2023/04/20 11:58:07;;;;;;;;;18.00;15.00;26.20;38.60;;;;;;109960;1252;49546;-62
2023/04/20 12:00:35;;;;;;;;;16.75;15.75;26.20;38.60;;;;;;110005;1257;50604;-62
2023/04/20 12:03:02;;;;;;;;;19.00;18.00;26.20;38.40;;;;;;109952;1254;45858;-60
2023/04/20 12:05:29;;;;;;;;;18.50;17.50;26.20;38.50;;;;;;110023;1252;56761;-60
2023/04/20 12:07:56;;;;;;;;;20.00;16.00;26.20;38.50;;;;;;110032;1252;53888;-61
2023/04/20 12:10:23;;;;;;;;;18.67;17.33;26.20;38.50;;;;;;109926;1257;49170;-61
2023/04/20 12:12:51;;;;;;;;;16.50;15.50;26.20;38.50;;;;;;110070;1252;50976;-62
2023/04/20 12:15:18;;;;;;;;;19.00;16.00;26.20;38.50;;;;;;110043;1257;45329;-62
2023/04/20 12:17:45;;;;;;;;;19.00;17.00;26.20;38.50;;;;;;109984;1254;55509;-62
2023/04/20 12:20:13;;;;;;;;;16.67;14.67;26.20;38.60;;;;;;109971;1252;54021;-62
2023/04/20 12:22:40;;;;;;;;;24.00;16.00;26.20;38.40;;;;;;109966;1252;49364;-62
2023/04/20 12:25:08;;;;;;;;;19.67;17.00;26.20;38.60;;;;;;109986;1257;49521;-62
2023/04/20 12:27:34;;;;;;;;;17.00;15.00;26.20;38.90;;;;;;109989;1252;45563;-62